Terminal Aerodrome Forecast
Issued by NWS

Home | Current Version | Previous Version | Graphics & Text | Print | Product List | Glossary On
Versions: 1 2 3 4 5 6 7 8 9 10 11 12 13 14 15 16
000
FTUS43 KBIS 230500
TAFJMS
TAF
KJMS 230538Z 2306/2406 19008KT P6SM SCT080 OVC150
     FM230800 23010KT P6SM SCT040 BKN080 OVC150
     FM231000 25015KT P6SM BKN035 OVC050
     FM231600 29021G31KT P6SM VCSH OVC025
     FM232100 32026G32KT 6SM -SN BLSN OVC015=

USA.gov is the U.S. government's official web portal to all federal, state and local government web resources and services.